createdAt,value
2023-05-24T00:00:24.232Z,14.50
2023-05-24T00:01:25.993Z,14.50
2023-05-24T00:02:28.196Z,14.60
2023-05-24T00:03:31.027Z,14.60
2023-05-24T00:04:33.649Z,14.60
2023-05-24T00:05:37.847Z,14.50
2023-05-24T00:06:39.386Z,14.50
2023-05-24T00:07:40.912Z,14.50
2023-05-24T00:08:42.442Z,14.50
2023-05-24T00:09:43.889Z,14.50
2023-05-24T00:10:45.356Z,14.50
2023-05-24T00:11:46.795Z,14.50
2023-05-24T00:12:48.263Z,14.50
2023-05-24T00:13:50.006Z,14.50
2023-05-24T00:14:51.818Z,14.50
2023-05-24T00:15:53.603Z,14.50
2023-05-24T00:16:55.264Z,14.50
2023-05-24T00:17:59.118Z,14.50
2023-05-24T00:19:00.638Z,14.50
2023-05-24T00:20:02.407Z,14.50
2023-05-24T00:21:04.923Z,14.50
2023-05-24T00:22:06.639Z,14.50
2023-05-24T00:23:08.089Z,14.60
2023-05-24T00:24:11.115Z,14.50
2023-05-24T00:25:12.895Z,14.50
2023-05-24T00:26:14.397Z,14.50
2023-05-24T00:27:21.125Z,14.50
2023-05-24T00:28:22.837Z,14.50
2023-05-24T00:29:24.375Z,14.70
2023-05-24T00:30:25.896Z,14.60
2023-05-24T00:31:30.468Z,14.60
2023-05-24T00:32:34.387Z,14.60
2023-05-24T00:33:36.040Z,14.60
2023-05-24T00:34:37.528Z,14.60
2023-05-24T00:35:39.129Z,14.60
2023-05-24T00:36:43.961Z,14.60
2023-05-24T00:37:46.444Z,14.60
2023-05-24T00:38:51.647Z,14.50
2023-05-24T00:39:53.397Z,14.60
2023-05-24T00:40:59.803Z,14.50
2023-05-24T00:42:02.745Z,14.50
2023-05-24T00:43:04.295Z,14.40
2023-05-24T00:44:06.096Z,14.40
2023-05-24T00:45:08.353Z,14.40
2023-05-24T00:46:22.723Z,14.30
2023-05-24T00:47:24.584Z,14.20
2023-05-24T00:48:28.863Z,14.30
2023-05-24T00:49:31.492Z,14.20
2023-05-24T00:50:34.406Z,14.20
2023-05-24T00:51:46.406Z,14.10
2023-05-24T00:52:49.824Z,14.00
2023-05-24T00:53:52.809Z,14.00
2023-05-24T00:54:54.352Z,14.10
2023-05-24T00:55:56.360Z,14.10
2023-05-24T00:56:58.282Z,14.00
2023-05-24T00:58:01.231Z,14.10
2023-05-24T00:59:05.239Z,14.00
2023-05-24T01:00:08.101Z,14.00
2023-05-24T01:01:13.042Z,13.90
2023-05-24T01:02:14.749Z,13.90
2023-05-24T01:03:16.507Z,13.90
2023-05-24T01:04:20.406Z,13.90
2023-05-24T01:05:23.824Z,13.90
2023-05-24T01:06:27.171Z,13.90
2023-05-24T01:07:40.595Z,14.00
2023-05-24T01:09:10.072Z,14.00
2023-05-24T01:10:47.218Z,14.00
2023-05-24T01:12:20.606Z,14.00
2023-05-24T01:13:36.565Z,14.00
2023-05-24T01:14:38.206Z,14.00
2023-05-24T01:15:52.306Z,14.00
2023-05-24T01:17:30.269Z,14.00
2023-05-24T01:19:13.004Z,14.00
2023-05-24T01:20:17.537Z,14.00
2023-05-24T01:21:48.712Z,14.00
2023-05-24T01:23:08.344Z,14.00
2023-05-24T01:24:37.094Z,14.00
2023-05-24T01:26:23.863Z,14.00
2023-05-24T01:27:27.678Z,14.00
2023-05-24T01:28:31.820Z,13.90
2023-05-24T01:29:36.056Z,13.90
2023-05-24T01:30:40.908Z,14.00
2023-05-24T01:31:43.170Z,14.00
2023-05-24T01:32:46.142Z,14.00
2023-05-24T01:33:48.020Z,14.00
2023-05-24T01:34:49.812Z,14.00
2023-05-24T01:35:51.417Z,14.00
2023-05-24T01:36:53.457Z,14.00
2023-05-24T01:37:55.148Z,14.00
2023-05-24T01:38:57.037Z,14.00
2023-05-24T01:39:59.054Z,14.00
2023-05-24T01:41:11.468Z,14.00
2023-05-24T01:42:48.922Z,14.00
2023-05-24T01:44:07.695Z,13.90
2023-05-24T01:45:23.038Z,14.00
2023-05-24T01:46:38.677Z,14.00
2023-05-24T01:47:55.725Z,13.90
2023-05-24T01:48:57.219Z,13.90
2023-05-24T01:50:07.798Z,13.90
2023-05-24T01:51:11.752Z,13.90
2023-05-24T01:52:16.871Z,13.90
2023-05-24T01:53:20.317Z,13.90
2023-05-24T01:54:25.774Z,13.90
2023-05-24T01:55:28.550Z,13.90
2023-05-24T01:56:32.034Z,13.90
2023-05-24T01:57:35.475Z,13.90
2023-05-24T01:58:40.856Z,13.80
2023-05-24T01:59:44.586Z,13.90
2023-05-24T02:00:46.543Z,13.80
2023-05-24T02:01:48.667Z,13.80
2023-05-24T02:02:51.205Z,13.90
2023-05-24T02:03:53.068Z,13.90
2023-05-24T02:04:54.744Z,13.90
2023-05-24T02:05:56.744Z,13.90
2023-05-24T02:06:58.300Z,13.90
2023-05-24T02:07:59.798Z,13.90
2023-05-24T02:09:01.434Z,13.90
2023-05-24T02:10:03.986Z,13.90
2023-05-24T02:11:06.903Z,13.90
2023-05-24T02:12:09.059Z,13.90
2023-05-24T02:13:10.632Z,13.90
2023-05-24T02:14:13.657Z,13.90
2023-05-24T02:15:15.135Z,13.80
2023-05-24T02:16:18.211Z,13.80
2023-05-24T02:17:19.871Z,13.80
2023-05-24T02:18:22.768Z,13.80
2023-05-24T02:19:26.992Z,13.80
2023-05-24T02:20:31.117Z,13.80
2023-05-24T02:21:32.915Z,13.80
2023-05-24T02:22:34.959Z,13.80
2023-05-24T02:23:36.795Z,13.80
2023-05-24T02:24:40.258Z,13.80
2023-05-24T02:25:42.166Z,13.80
2023-05-24T02:26:43.636Z,13.70
2023-05-24T02:27:47.175Z,13.80
2023-05-24T02:28:48.778Z,13.80
2023-05-24T02:29:50.574Z,13.80
2023-05-24T02:30:52.577Z,13.70
2023-05-24T02:31:56.534Z,13.70
2023-05-24T02:32:58.563Z,13.70
2023-05-24T02:34:00.289Z,13.70
2023-05-24T02:35:02.019Z,13.80
2023-05-24T02:36:04.187Z,13.70
2023-05-24T02:37:06.078Z,13.80
2023-05-24T02:38:07.564Z,13.70
2023-05-24T02:39:09.007Z,13.80
2023-05-24T02:40:11.063Z,13.70
2023-05-24T02:41:17.869Z,13.70
2023-05-24T02:42:19.585Z,13.70
2023-05-24T02:43:21.121Z,13.70
2023-05-24T02:44:23.133Z,13.60
2023-05-24T02:45:24.579Z,13.70
2023-05-24T02:46:26.875Z,13.60
2023-05-24T02:47:28.772Z,13.60
2023-05-24T02:48:30.436Z,13.60
2023-05-24T02:49:32.090Z,13.50
2023-05-24T02:50:33.731Z,13.50
2023-05-24T02:51:37.021Z,13.50
2023-05-24T02:52:38.799Z,13.50
2023-05-24T02:53:43.580Z,13.40
2023-05-24T02:54:46.764Z,13.40
2023-05-24T02:55:48.266Z,13.40
2023-05-24T02:56:50.729Z,13.40
2023-05-24T02:57:52.821Z,13.30
2023-05-24T02:58:55.703Z,13.30
2023-05-24T02:59:57.908Z,13.20
2023-05-24T03:00:59.697Z,13.20
2023-05-24T03:02:01.688Z,13.20
2023-05-24T03:03:03.742Z,13.20
2023-05-24T03:04:07.024Z,13.10
2023-05-24T03:05:08.823Z,13.10
2023-05-24T03:06:13.836Z,13.10
2023-05-24T03:07:15.505Z,13.10
2023-05-24T03:08:17.513Z,13.10
2023-05-24T03:09:19.098Z,13.00
2023-05-24T03:10:20.642Z,13.10
2023-05-24T03:11:23.632Z,13.00
2023-05-24T03:12:25.535Z,13.00
2023-05-24T03:13:27.036Z,13.00
2023-05-24T03:14:31.537Z,13.00
2023-05-24T03:15:34.458Z,13.00
2023-05-24T03:16:37.720Z,13.00
2023-05-24T03:17:39.549Z,13.00
2023-05-24T03:18:41.449Z,12.90
2023-05-24T03:19:43.172Z,12.90
2023-05-24T03:20:44.933Z,13.00
2023-05-24T03:21:48.039Z,13.00
2023-05-24T03:22:49.582Z,12.90
2023-05-24T03:23:51.115Z,12.90
2023-05-24T03:24:53.080Z,13.00
2023-05-24T03:25:55.146Z,12.90
2023-05-24T03:26:56.647Z,12.90
2023-05-24T03:27:58.286Z,12.90
2023-05-24T03:28:59.778Z,12.90
2023-05-24T03:30:08.640Z,12.90
2023-05-24T03:31:20.880Z,12.90
2023-05-24T03:32:23.225Z,12.90
2023-05-24T03:33:24.848Z,12.80
2023-05-24T03:34:26.345Z,12.80
2023-05-24T03:35:28.815Z,12.90
2023-05-24T03:36:31.297Z,13.00
2023-05-24T03:37:32.947Z,12.90
2023-05-24T03:38:35.025Z,12.90
2023-05-24T03:39:36.689Z,12.90
2023-05-24T03:40:52.598Z,12.90
2023-05-24T03:41:54.244Z,13.00
2023-05-24T03:42:55.989Z,12.90
2023-05-24T03:44:10.051Z,12.90
2023-05-24T03:45:11.762Z,13.00
2023-05-24T03:46:13.210Z,12.90
2023-05-24T03:47:16.605Z,12.90
2023-05-24T03:48:20.765Z,13.00
2023-05-24T03:49:23.092Z,13.00
2023-05-24T03:50:25.395Z,13.00
2023-05-24T03:51:29.725Z,12.90
2023-05-24T03:52:31.536Z,13.00
2023-05-24T03:53:33.240Z,13.00
2023-05-24T03:54:34.940Z,13.00
2023-05-24T03:55:36.428Z,13.00
2023-05-24T03:56:38.538Z,13.00
2023-05-24T03:57:40.052Z,13.00
2023-05-24T03:58:41.531Z,13.00
2023-05-24T03:59:42.927Z,13.00
2023-05-24T04:00:44.540Z,13.10
2023-05-24T04:01:47.349Z,13.10
2023-05-24T04:02:49.879Z,13.00
2023-05-24T04:03:53.022Z,13.10
2023-05-24T04:04:55.688Z,13.10
2023-05-24T04:05:57.973Z,13.10
2023-05-24T04:06:59.694Z,13.20
2023-05-24T04:08:01.578Z,13.20
2023-05-24T04:09:05.603Z,13.20
2023-05-24T04:10:08.107Z,13.20
2023-05-24T04:11:09.804Z,13.10
2023-05-24T04:12:12.324Z,13.20
2023-05-24T04:13:16.680Z,13.10
2023-05-24T04:14:18.230Z,13.20
2023-05-24T04:15:19.737Z,13.20
2023-05-24T04:16:24.143Z,13.20
2023-05-24T04:17:27.428Z,13.10
2023-05-24T04:18:29.435Z,13.10
2023-05-24T04:19:31.074Z,13.10
2023-05-24T04:20:34.180Z,13.10
2023-05-24T04:21:38.335Z,13.20
2023-05-24T04:22:40.901Z,13.20
2023-05-24T04:23:42.776Z,13.20
2023-05-24T04:24:47.837Z,13.20
2023-05-24T04:25:49.389Z,13.20
2023-05-24T04:26:51.735Z,13.20
2023-05-24T04:27:53.546Z,13.20
2023-05-24T04:28:55.224Z,13.20
2023-05-24T04:29:57.167Z,13.30
2023-05-24T04:30:59.025Z,13.20
2023-05-24T04:32:00.963Z,13.20
2023-05-24T04:33:03.685Z,13.20
2023-05-24T04:34:07.641Z,13.20
2023-05-24T04:35:09.914Z,13.30
2023-05-24T04:36:11.740Z,13.30
2023-05-24T04:37:17.287Z,13.20
2023-05-24T04:38:22.121Z,13.30
2023-05-24T04:39:23.611Z,13.30
2023-05-24T04:40:25.193Z,13.30
2023-05-24T04:41:28.171Z,13.30
2023-05-24T04:42:32.461Z,13.30
2023-05-24T04:43:37.877Z,13.30
2023-05-24T04:44:43.056Z,13.30
2023-05-24T04:45:44.735Z,13.30
2023-05-24T04:46:46.327Z,13.30
2023-05-24T04:47:48.752Z,13.30
2023-05-24T04:48:50.254Z,13.40
2023-05-24T04:49:52.350Z,13.40
2023-05-24T04:50:55.478Z,13.40
2023-05-24T04:51:57.358Z,13.50
2023-05-24T04:52:58.913Z,13.50
2023-05-24T04:54:01.532Z,13.50
2023-05-24T04:55:04.001Z,13.50
2023-05-24T04:56:05.724Z,13.50
2023-05-24T04:57:07.323Z,13.50
2023-05-24T04:58:10.711Z,13.50
2023-05-24T04:59:12.420Z,13.40
2023-05-24T05:00:14.417Z,13.40
2023-05-24T05:01:16.057Z,13.40
2023-05-24T05:02:17.638Z,13.50
2023-05-24T05:03:19.245Z,13.50
2023-05-24T05:04:20.941Z,13.50
2023-05-24T05:05:23.456Z,13.60
2023-05-24T05:06:25.108Z,13.60
2023-05-24T05:07:26.585Z,13.60
2023-05-24T05:08:28.553Z,13.70
2023-05-24T05:09:30.016Z,13.70
2023-05-24T05:10:31.624Z,13.70
2023-05-24T05:11:33.139Z,13.70
2023-05-24T05:12:34.811Z,13.70
2023-05-24T05:13:36.481Z,13.70
2023-05-24T05:14:38.307Z,13.80
2023-05-24T05:15:42.166Z,13.80
2023-05-24T05:16:45.779Z,13.80
2023-05-24T05:17:47.503Z,13.80
2023-05-24T05:18:49.481Z,13.80
2023-05-24T05:19:51.412Z,13.80
2023-05-24T05:20:52.962Z,13.80
2023-05-24T05:21:54.729Z,13.80
2023-05-24T05:22:56.582Z,13.70
2023-05-24T05:23:58.148Z,13.80
2023-05-24T05:25:02.621Z,13.90
2023-05-24T05:26:04.879Z,13.90
2023-05-24T05:27:07.115Z,13.80
2023-05-24T05:28:09.047Z,13.70
2023-05-24T05:29:10.882Z,13.70
2023-05-24T05:30:13.240Z,13.70
2023-05-24T05:31:14.834Z,13.70
2023-05-24T05:32:16.551Z,13.70
2023-05-24T05:33:18.182Z,13.60
2023-05-24T05:34:21.143Z,13.60
2023-05-24T05:35:23.301Z,13.60
2023-05-24T05:36:24.974Z,13.60
2023-05-24T05:37:26.528Z,13.60
2023-05-24T05:38:28.063Z,13.60
2023-05-24T05:39:31.797Z,13.70
2023-05-24T05:40:33.507Z,13.70
2023-05-24T05:41:37.420Z,13.70
2023-05-24T05:42:38.980Z,13.70
2023-05-24T05:43:40.621Z,13.80
2023-05-24T05:44:42.121Z,13.80
2023-05-24T05:45:44.241Z,13.80
2023-05-24T05:46:46.565Z,13.80
2023-05-24T05:47:48.564Z,13.80
2023-05-24T05:48:56.398Z,13.80
2023-05-24T05:49:57.836Z,13.80
2023-05-24T05:51:02.573Z,13.90
2023-05-24T05:52:05.739Z,13.90
2023-05-24T05:53:07.192Z,13.90
2023-05-24T05:54:14.290Z,13.90
2023-05-24T05:55:15.832Z,13.90
2023-05-24T05:56:17.925Z,14.00
2023-05-24T05:57:24.194Z,14.00
2023-05-24T05:58:26.117Z,14.00
2023-05-24T05:59:27.624Z,14.00
2023-05-24T06:00:29.398Z,14.10
2023-05-24T06:01:31.072Z,14.10
2023-05-24T06:02:32.611Z,14.10
2023-05-24T06:03:34.438Z,13.90
2023-05-24T06:04:36.775Z,13.90
2023-05-24T06:05:38.485Z,13.80
2023-05-24T06:06:40.374Z,13.90
2023-05-24T06:07:41.769Z,13.90
2023-05-24T06:08:43.405Z,13.80
2023-05-24T06:09:44.896Z,13.80
2023-05-24T06:10:46.516Z,13.70
2023-05-24T06:11:48.302Z,13.70
2023-05-24T06:12:49.717Z,13.70
2023-05-24T06:13:51.226Z,13.70
2023-05-24T06:14:52.684Z,13.80
2023-05-24T06:15:54.915Z,13.80
2023-05-24T06:16:58.015Z,13.80
2023-05-24T06:18:02.302Z,13.70
2023-05-24T06:19:06.607Z,13.80
2023-05-24T06:20:15.437Z,13.90
2023-05-24T06:21:17.506Z,14.00
2023-05-24T06:22:19.210Z,13.90
2023-05-24T06:23:20.669Z,13.80
2023-05-24T06:24:22.774Z,13.80
2023-05-24T06:25:24.573Z,13.80
2023-05-24T06:26:27.020Z,13.90
2023-05-24T06:27:28.484Z,13.90
2023-05-24T06:28:29.967Z,13.90
2023-05-24T06:29:31.737Z,13.90
2023-05-24T06:30:33.889Z,13.80
2023-05-24T06:31:35.536Z,13.90
2023-05-24T06:32:37.326Z,13.90
2023-05-24T06:33:42.565Z,13.90
2023-05-24T06:34:47.033Z,13.90
2023-05-24T06:35:49.017Z,13.90
2023-05-24T06:36:51.752Z,13.90
2023-05-24T06:37:53.473Z,14.00
2023-05-24T06:38:56.941Z,14.00
2023-05-24T06:39:58.475Z,14.00
2023-05-24T06:40:59.979Z,14.00
2023-05-24T06:42:02.394Z,13.90
2023-05-24T06:43:11.411Z,13.80
2023-05-24T06:44:16.394Z,13.80
2023-05-24T06:45:17.905Z,13.70
2023-05-24T06:46:19.957Z,13.70
2023-05-24T06:47:22.677Z,13.70
2023-05-24T06:48:24.282Z,13.70
2023-05-24T06:49:26.244Z,13.80
2023-05-24T06:50:28.129Z,13.60
2023-05-24T06:51:30.539Z,13.60
2023-05-24T06:52:32.127Z,13.60
2023-05-24T06:53:33.569Z,13.60
2023-05-24T06:54:35.289Z,13.60
2023-05-24T06:55:37.592Z,13.70
2023-05-24T06:56:39.075Z,13.70
2023-05-24T06:57:41.071Z,13.80
2023-05-24T06:58:42.782Z,13.90
2023-05-24T06:59:44.617Z,13.90
2023-05-24T07:00:46.712Z,13.80
2023-05-24T07:01:51.658Z,13.80
2023-05-24T07:02:53.466Z,14.00
2023-05-24T07:03:55.126Z,14.10
2023-05-24T07:04:57.217Z,14.00
2023-05-24T07:05:59.340Z,14.10
2023-05-24T07:07:01.167Z,14.30
2023-05-24T07:08:02.700Z,14.40
2023-05-24T07:09:05.107Z,14.30
2023-05-24T07:10:08.292Z,14.30
2023-05-24T07:11:10.670Z,14.10
2023-05-24T07:12:12.308Z,14.00
2023-05-24T07:13:13.771Z,14.00
2023-05-24T07:14:15.383Z,13.80
2023-05-24T07:15:17.115Z,13.80
2023-05-24T07:16:18.640Z,13.80
2023-05-24T07:17:20.161Z,13.70
2023-05-24T07:18:21.674Z,13.60
2023-05-24T07:19:23.501Z,13.50
2023-05-24T07:20:25.319Z,13.50
2023-05-24T07:21:26.879Z,13.60
2023-05-24T07:22:28.751Z,13.70
2023-05-24T07:23:30.250Z,13.70
2023-05-24T07:24:32.004Z,13.80
2023-05-24T07:25:34.158Z,13.90
2023-05-24T07:26:35.961Z,14.00
2023-05-24T07:27:37.449Z,14.00
2023-05-24T07:28:40.504Z,13.90
2023-05-24T07:29:42.019Z,13.70
2023-05-24T07:30:43.557Z,13.70
2023-05-24T07:31:45.756Z,13.80
2023-05-24T07:32:47.509Z,13.70
2023-05-24T07:33:49.426Z,13.70
2023-05-24T07:34:52.136Z,13.70
2023-05-24T07:35:53.825Z,13.80
2023-05-24T07:36:55.929Z,13.80
2023-05-24T07:37:57.452Z,13.90
2023-05-24T07:39:00.521Z,13.80
2023-05-24T07:40:02.499Z,13.90
2023-05-24T07:41:04.794Z,13.90
2023-05-24T07:42:06.863Z,13.90
2023-05-24T07:43:08.359Z,13.80
2023-05-24T07:44:09.831Z,13.80
2023-05-24T07:45:11.931Z,13.80
2023-05-24T07:46:13.546Z,13.80
2023-05-24T07:47:15.056Z,13.80
2023-05-24T07:48:16.513Z,13.90
2023-05-24T07:49:18.064Z,13.80
2023-05-24T07:50:19.682Z,13.90
2023-05-24T07:51:21.552Z,13.90
2023-05-24T07:52:23.525Z,13.90
2023-05-24T07:53:24.963Z,13.90
2023-05-24T07:54:26.682Z,14.00
2023-05-24T07:55:28.406Z,14.00
2023-05-24T07:56:30.126Z,14.00
2023-05-24T07:57:32.143Z,13.90
2023-05-24T07:58:33.829Z,13.80
2023-05-24T07:59:35.608Z,13.80
2023-05-24T08:00:38.212Z,13.80
2023-05-24T08:01:40.360Z,13.80
2023-05-24T08:02:44.013Z,13.80
2023-05-24T08:03:46.064Z,13.90
2023-05-24T08:04:47.773Z,14.00
2023-05-24T08:05:49.239Z,13.90
2023-05-24T08:06:50.828Z,13.80
2023-05-24T08:07:56.419Z,13.70
2023-05-24T08:08:57.866Z,13.70
2023-05-24T08:09:59.555Z,13.80
2023-05-24T08:11:01.391Z,13.90
2023-05-24T08:12:05.316Z,13.90
2023-05-24T08:13:06.840Z,14.00
2023-05-24T08:14:08.295Z,14.10
2023-05-24T08:15:11.077Z,14.30
2023-05-24T08:16:12.655Z,14.30
2023-05-24T08:17:14.158Z,14.20
2023-05-24T08:18:16.385Z,13.90
2023-05-24T08:19:17.879Z,14.00
2023-05-24T08:20:19.578Z,13.80
2023-05-24T08:21:22.783Z,13.90
2023-05-24T08:22:24.174Z,14.00
2023-05-24T08:23:26.149Z,14.00
2023-05-24T08:24:28.321Z,14.00
2023-05-24T08:25:30.079Z,13.80
2023-05-24T08:26:31.803Z,13.60
2023-05-24T08:27:33.757Z,13.70
2023-05-24T08:28:35.927Z,13.80
2023-05-24T08:29:38.003Z,13.70
2023-05-24T08:30:39.723Z,13.80
2023-05-24T08:31:41.482Z,13.90
2023-05-24T08:32:43.747Z,14.10
2023-05-24T08:33:45.287Z,14.10
2023-05-24T08:34:46.686Z,14.10
2023-05-24T08:35:48.845Z,14.10
2023-05-24T08:36:50.418Z,14.10
2023-05-24T08:37:52.548Z,14.20
2023-05-24T08:38:56.976Z,14.30
2023-05-24T08:39:59.166Z,14.30
2023-05-24T08:41:02.267Z,14.40
2023-05-24T08:42:09.345Z,14.50
2023-05-24T08:43:12.563Z,14.40
2023-05-24T08:44:15.053Z,14.20
2023-05-24T08:45:18.432Z,14.20
2023-05-24T08:46:20.418Z,14.10
2023-05-24T08:47:23.264Z,13.90
2023-05-24T08:48:26.742Z,14.00
2023-05-24T08:49:31.344Z,13.90
2023-05-24T08:50:38.993Z,13.90
2023-05-24T08:51:40.979Z,14.00
2023-05-24T08:52:43.779Z,13.90
2023-05-24T08:53:49.633Z,14.00
2023-05-24T08:54:53.468Z,14.10
2023-05-24T08:55:56.196Z,14.10
2023-05-24T08:56:58.778Z,14.00
2023-05-24T08:58:01.130Z,14.10
2023-05-24T08:59:02.824Z,14.20
2023-05-24T09:00:05.313Z,14.30
2023-05-24T09:01:07.489Z,14.30
2023-05-24T09:02:13.682Z,14.50
2023-05-24T09:03:16.864Z,14.50
2023-05-24T09:04:20.259Z,14.40
2023-05-24T09:05:22.915Z,14.20
2023-05-24T09:06:25.412Z,14.10
2023-05-24T09:07:27.605Z,14.20
2023-05-24T09:08:29.328Z,14.10
2023-05-24T09:09:32.474Z,14.00
2023-05-24T09:10:45.163Z,13.90
2023-05-24T09:11:59.088Z,14.00
2023-05-24T09:13:03.150Z,14.00
2023-05-24T09:14:04.748Z,14.10
2023-05-24T09:15:08.738Z,14.10
2023-05-24T09:16:11.127Z,14.20
2023-05-24T09:17:15.945Z,14.20
2023-05-24T09:18:17.480Z,14.20
2023-05-24T09:19:20.214Z,14.10
2023-05-24T09:20:22.745Z,14.10
2023-05-24T09:21:25.841Z,14.20
2023-05-24T09:22:28.921Z,14.10
2023-05-24T09:23:31.040Z,14.10
2023-05-24T09:24:41.558Z,14.10
2023-05-24T09:25:49.909Z,14.20
2023-05-24T09:26:51.415Z,14.10
2023-05-24T09:27:53.914Z,14.10
2023-05-24T09:28:56.526Z,14.10
2023-05-24T09:29:58.348Z,14.00
2023-05-24T09:31:07.417Z,14.00
2023-05-24T09:32:09.539Z,14.10
2023-05-24T09:33:12.395Z,14.00
2023-05-24T09:34:16.720Z,14.10
2023-05-24T09:35:18.277Z,14.10
2023-05-24T09:36:19.834Z,14.10
2023-05-24T09:37:27.606Z,14.10
2023-05-24T09:38:33.170Z,14.00
2023-05-24T09:39:35.870Z,14.10
2023-05-24T09:40:39.373Z,14.10
2023-05-24T09:41:43.728Z,14.00
2023-05-24T09:42:45.573Z,14.10
2023-05-24T09:43:49.786Z,14.20
2023-05-24T09:45:02.591Z,14.10
2023-05-24T09:46:04.933Z,14.20
2023-05-24T09:47:06.750Z,14.00
2023-05-24T09:48:12.068Z,14.00
2023-05-24T09:49:13.655Z,14.10
2023-05-24T09:50:17.494Z,14.10
2023-05-24T09:51:20.063Z,14.10
2023-05-24T09:52:22.543Z,14.00
2023-05-24T09:53:24.619Z,14.10
2023-05-24T09:54:26.905Z,14.10
2023-05-24T09:55:28.386Z,14.10
2023-05-24T09:56:32.959Z,14.10
2023-05-24T09:57:34.477Z,14.10
2023-05-24T09:58:36.691Z,14.20
2023-05-24T09:59:40.854Z,14.00
2023-05-24T10:02:13.134Z,14.30
2023-05-24T10:03:15.271Z,14.40
2023-05-24T10:04:17.067Z,14.50
2023-05-24T10:05:18.732Z,14.70
2023-05-24T10:06:21.067Z,14.70
2023-05-24T10:07:22.581Z,14.80
2023-05-24T10:08:24.501Z,14.80
2023-05-24T10:09:27.761Z,14.80
2023-05-24T10:10:30.379Z,14.80
2023-05-24T10:11:33.458Z,14.80
2023-05-24T10:12:42.821Z,14.70
2023-05-24T10:13:44.986Z,14.70
2023-05-24T10:14:47.392Z,14.50
2023-05-24T10:15:48.934Z,14.40
2023-05-24T10:16:50.663Z,14.40
2023-05-24T10:17:53.002Z,14.40
2023-05-24T10:18:55.869Z,14.60
2023-05-24T10:19:57.531Z,14.90
2023-05-24T10:21:01.650Z,14.90
2023-05-24T10:22:08.916Z,15.10
2023-05-24T10:23:16.027Z,15.20
2023-05-24T10:24:23.992Z,15.30
2023-05-24T10:25:28.638Z,15.50
2023-05-24T10:26:33.732Z,15.40
2023-05-24T10:27:36.351Z,15.30
2023-05-24T10:28:44.117Z,15.10
2023-05-24T10:30:08.571Z,15.20
2023-05-24T10:31:24.264Z,15.10
2023-05-24T10:32:31.491Z,15.00
2023-05-24T10:33:37.486Z,15.10
2023-05-24T10:34:40.761Z,15.20
2023-05-24T10:35:43.752Z,15.20
2023-05-24T10:36:46.077Z,15.10
2023-05-24T10:37:47.945Z,15.10
2023-05-24T10:38:51.146Z,15.20
2023-05-24T10:39:53.271Z,15.20
2023-05-24T10:40:55.332Z,15.40
2023-05-24T10:41:46.023Z,14.10
2023-05-24T10:41:57.305Z,15.50
2023-05-24T10:42:59.312Z,15.70
2023-05-24T10:44:08.751Z,15.80
2023-05-24T10:45:32.144Z,15.60
2023-05-24T10:46:33.848Z,15.50
2023-05-24T10:47:39.188Z,15.70
2023-05-24T10:48:41.645Z,15.70
2023-05-24T10:49:58.301Z,15.70
2023-05-24T10:51:38.753Z,15.70
2023-05-24T10:52:41.682Z,15.60
2023-05-24T10:53:43.203Z,15.70
2023-05-24T10:55:08.448Z,15.80
2023-05-24T10:56:10.017Z,15.90
2023-05-24T10:57:12.023Z,15.80
2023-05-24T10:58:14.095Z,15.70
2023-05-24T10:59:35.230Z,15.70
2023-05-24T11:00:44.543Z,15.70
2023-05-24T11:01:54.746Z,15.90
2023-05-24T11:03:09.080Z,15.80
2023-05-24T11:04:18.857Z,15.80
2023-05-24T11:05:20.677Z,15.80
2023-05-24T11:06:50.890Z,15.70
2023-05-24T11:07:59.555Z,15.60
2023-05-24T11:09:01.245Z,15.50
2023-05-24T11:10:09.777Z,15.60
2023-05-24T11:12:20.668Z,15.50
2023-05-24T11:13:22.197Z,15.40
2023-05-24T11:14:36.235Z,15.30
2023-05-24T11:15:38.267Z,15.50
2023-05-24T11:16:40.806Z,15.70
2023-05-24T11:18:16.210Z,15.90
2023-05-24T11:19:24.155Z,15.90
2023-05-24T11:20:26.164Z,16.00
2023-05-24T11:21:31.537Z,16.10
2023-05-24T11:22:33.370Z,16.20
2023-05-24T11:23:38.153Z,16.40
2023-05-24T11:24:41.546Z,16.50
2023-05-24T11:25:43.246Z,16.50
2023-05-24T11:26:45.281Z,16.40
2023-05-24T11:27:47.370Z,16.60
2023-05-24T11:28:49.848Z,16.60
2023-05-24T11:29:52.812Z,16.60
2023-05-24T11:30:55.114Z,16.60
2023-05-24T11:32:04.616Z,16.60
2023-05-24T11:33:22.939Z,16.50
2023-05-24T11:34:25.285Z,16.70
2023-05-24T11:35:28.421Z,16.80
2023-05-24T11:36:30.275Z,16.90
2023-05-24T11:37:45.530Z,17.10
2023-05-24T11:38:49.442Z,17.30
2023-05-24T11:39:54.506Z,17.20
2023-05-24T11:40:58.619Z,17.20
2023-05-24T11:42:01.568Z,16.80
2023-05-24T11:43:06.721Z,16.70
2023-05-24T11:44:10.209Z,16.60
2023-05-24T11:45:11.986Z,16.60
2023-05-24T11:46:14.125Z,16.70
2023-05-24T11:47:15.747Z,16.60
2023-05-24T11:48:19.093Z,16.60
2023-05-24T11:49:22.360Z,16.50
2023-05-24T11:50:45.848Z,16.50
2023-05-24T11:51:46.435Z,16.50
2023-05-24T11:52:47.885Z,16.70
2023-05-24T11:53:53.013Z,16.70
2023-05-24T11:54:56.110Z,16.70
2023-05-24T11:55:58.204Z,16.90
2023-05-24T11:57:00.140Z,17.00
2023-05-24T11:58:06.016Z,17.20
2023-05-24T11:59:22.599Z,17.30
2023-05-24T12:00:27.490Z,17.20
2023-05-24T12:01:29.073Z,17.20
2023-05-24T12:02:31.153Z,17.40
2023-05-24T12:03:33.419Z,17.50
2023-05-24T12:04:35.650Z,17.60
2023-05-24T12:05:38.142Z,17.60
2023-05-24T12:06:42.042Z,17.50
2023-05-24T12:07:48.821Z,17.60
2023-05-24T12:08:50.434Z,17.60
2023-05-24T12:09:52.007Z,17.70
2023-05-24T12:10:53.530Z,17.40
2023-05-24T12:11:55.403Z,17.40
2023-05-24T12:12:57.976Z,17.30
2023-05-24T12:14:00.478Z,17.20
2023-05-24T12:15:01.963Z,17.40
2023-05-24T12:16:03.637Z,17.40
2023-05-24T12:17:05.895Z,17.70
2023-05-24T12:18:26.846Z,17.70
2023-05-24T12:19:37.296Z,17.90
2023-05-24T12:20:39.081Z,17.80
2023-05-24T12:21:43.615Z,17.80
2023-05-24T12:22:52.884Z,17.70
2023-05-24T12:23:54.390Z,17.50
2023-05-24T12:24:57.285Z,17.40
2023-05-24T12:26:03.861Z,17.40
2023-05-24T12:27:13.632Z,17.50
2023-05-24T12:28:15.492Z,17.60
2023-05-24T12:29:17.708Z,17.60
2023-05-24T12:30:23.818Z,17.60
2023-05-24T12:31:26.857Z,17.60
2023-05-24T12:32:28.703Z,17.70
2023-05-24T12:33:31.705Z,17.60
2023-05-24T12:34:33.109Z,17.80
2023-05-24T12:35:34.527Z,17.90
2023-05-24T12:36:36.737Z,17.80
2023-05-24T12:37:38.159Z,18.00
2023-05-24T12:38:39.550Z,18.00
2023-05-24T12:39:43.084Z,18.00
2023-05-24T12:40:54.422Z,18.10
2023-05-24T12:42:08.952Z,18.20
2023-05-24T12:43:10.671Z,18.40
2023-05-24T12:44:12.763Z,18.30
2023-05-24T12:45:14.373Z,18.30
2023-05-24T12:46:15.820Z,18.20
2023-05-24T12:47:17.327Z,18.20
2023-05-24T12:48:18.932Z,18.30
2023-05-24T12:49:20.961Z,18.30
2023-05-24T12:50:23.919Z,18.40
2023-05-24T12:51:25.499Z,18.30
2023-05-24T12:52:27.279Z,18.40
2023-05-24T12:53:28.884Z,18.40
2023-05-24T12:54:30.909Z,18.40
2023-05-24T12:55:32.432Z,18.30
2023-05-24T12:56:34.512Z,18.30
2023-05-24T12:57:35.979Z,18.30
2023-05-24T12:58:37.798Z,18.40
2023-05-24T12:59:39.542Z,18.30
2023-05-24T13:00:41.879Z,18.40
2023-05-24T13:01:47.194Z,18.40
2023-05-24T13:02:49.866Z,18.50
2023-05-24T13:03:52.185Z,18.60
2023-05-24T13:04:53.873Z,18.70
2023-05-24T13:05:55.667Z,18.90
2023-05-24T13:06:57.115Z,18.90
2023-05-24T13:07:58.584Z,19.00
2023-05-24T13:09:00.120Z,19.00
2023-05-24T13:10:02.561Z,19.10
2023-05-24T13:11:04.307Z,19.10
2023-05-24T13:12:06.812Z,19.10
2023-05-24T13:13:08.238Z,19.10
2023-05-24T13:14:11.698Z,19.20
2023-05-24T13:15:14.023Z,19.20
2023-05-24T13:16:18.371Z,19.30
2023-05-24T13:17:20.576Z,19.20
2023-05-24T13:18:22.083Z,19.20
2023-05-24T13:19:23.598Z,19.20
2023-05-24T13:20:25.208Z,19.20
2023-05-24T13:21:26.948Z,19.20
2023-05-24T13:22:29.189Z,19.30
2023-05-24T13:23:31.387Z,19.40
2023-05-24T13:24:33.209Z,19.40
2023-05-24T13:25:34.745Z,19.50
2023-05-24T13:26:37.942Z,19.70
2023-05-24T13:27:39.850Z,19.70
2023-05-24T13:28:53.683Z,20.00
2023-05-24T13:30:05.589Z,20.10
2023-05-24T13:31:07.791Z,20.30
2023-05-24T13:32:09.411Z,20.40
2023-05-24T13:33:11.018Z,20.40
2023-05-24T13:34:12.480Z,20.60
2023-05-24T13:35:13.972Z,20.70
2023-05-24T13:36:17.175Z,20.90
2023-05-24T13:37:19.498Z,21.00
2023-05-24T13:38:21.997Z,21.00
2023-05-24T13:39:23.998Z,21.10
2023-05-24T13:40:26.229Z,20.90
2023-05-24T13:41:28.070Z,20.80
2023-05-24T13:42:29.756Z,20.80